Home > Products > Valid Products > TAF

000
FTPQ31 PGUM 242300
TAFPQ
TAF
PGUM 242329Z 2500/2606 08011KT P6SM VCSH SCT018 SCT120=



000
FTPQ31 PGUM 241700
TAFPQ
TAF
PGUM 241720Z 2418/2524 10006KT P6SM VCSH FEW018 SCT120
     FM250000 10011KT P6SM VCSH FEW018 SCT120=



000
FTPQ31 PGUM 241200 AAA
TAFPQ
TAF AMD
PGUM 241242Z 2413/2518 09004KT P6SM VCSH FEW018 SCT120
      TEMPO 2413/2414 5SM SHRA SCT014 BKN025=



000
FTPQ31 PGUM 241100
TAFPQ
TAF
PGUM 241120Z 2412/2518 09004KT P6SM VCSH FEW018 SCT120=



000
FTPQ31 PGUM 240500
TAFPQ
TAF
PGUM 240539Z 2406/2512 12008KT P6SM VCSH SCT020=



000
FTPQ31 PGUM 232300
TAFPQ
TAF
PGUM 232338Z 2400/2506 14007KT P6SM VCSH FEW018 SCT050 SCT120
     FM240100 15009KT P6SM VCSH FEW020 SCT060 SCT140=



000
FTPQ31 PGUM 231700
TAFPQ
TAF
PGUM 231730Z 2318/2424 14007KT P6SM VCSH FEW018 SCT050 SCT120
     FM240100 15010KT P6SM VCSH FEW020 SCT060 SCT140=



000
FTPQ31 PGUM 231100
TAFPQ
TAF
PGUM 231120Z 2312/2418 06007KT P6SM VCTS FEW016CB SCT040 BKN120
      TEMPO 2312/2313 5SM SHRA SCT014 BKN030
     FM231300 09007KT P6SM VCSH FEW018 SCT050 SCT120=



000
FTPQ31 PGUM 231000 AAC
TAFPQ
TAF AMD
PGUM 231048Z 2311/2412 06007KT P6SM VCTS FEW016CB SCT040 BKN120
      TEMPO 2311/2313 5SM SHRA SCT014 BKN030
     FM231300 09007KT P6SM VCSH FEW018 SCT050 SCT120=



000
FTPQ31 PGUM 230700 AAA
TAFPQ
TAF AMD
PGUM 230722Z 2307/2412 10010KT P6SM VCSH SCT016 SCT040 BKN120
      TEMPO 2307/2308 1SM +TSRA BKN010 BKN030CB OVC050
     FM231200 13006KT P6SM VCSH FEW015 SCT040=



000
FTPQ31 PGUM 230500
TAFPQ
TAF
PGUM 230536Z 2306/2412 05007G14KT P6SM VCSH SCT016 SCT040 BKN120
      TEMPO 2306/2307 -SHRA SCT010 BKN030 OVC050
     FM231200 12006KT P6SM VCSH FEW015 SCT040=



000
FTPQ31 PGUM 230400 AAE
TAFPQ
TAF AMD
PGUM 230406Z 2304/2406 05007G14KT P6SM VCSH FEW016 SCT040 BKN120
      TEMPO 2304/2306 -SHRA SCT010 BKN030 OVC050
     FM231200 11007KT P6SM VCSH FEW015 SCT040=



000
FTPQ31 PGUM 222300
TAFPQ
TAF
PGUM 222323Z 2300/2406 03007KT P6SM VCSH FEW016 SCT040 BKN120
     FM230600 11007KT P6SM VCSH FEW015 SCT040=



000
FTPQ31 PGUM 221700
TAFPQ
TAF
PGUM 221731Z 2218/2324 03007KT P6SM VCSH FEW016 SCT040 BKN120
      TEMPO 2222/2302 5SM SHRA SCT014 BKN030=



000
FTPQ31 PGUM 221700
TAFPQ
TAF
PGUM 221731Z 2218/2324 03007KT P6SM VCSH FEW016 SCT040 BKN120
      TEMPO 2222/2302 5SM SHRA SCT014 BKN030=



000
FTPQ31 PGUM 221100
TAFPQ
TAF
PGUM 221120Z 2212/2318 06005KT P6SM VCSH FEW018 SCT050=



000
FTPQ31 PGUM 220500
TAFPQ
TAF
PGUM 220520Z 2206/2312 09007KT P6SM VCSH SCT018=



000
FTPQ31 PGUM 220500
TAFPQ
TAF
PGUM 220520Z 2206/2312 09007KT P6SM VCSH SCT018=



    US Dept of Commerce
    National Oceanic and Atmospheric Administration
    National Weather Service
    1325 East West Highway
    Silver Spring, MD 20910
    Page Author: NWS Internet Services Team
Disclaimer
Information Quality
Credits
Glossary
Privacy Policy
Freedom of Information Act (FOIA)
About Us
Career Opportunities